createdAt,value
2022-12-29T00:01:40.534Z,92426.53
2022-12-29T00:04:12.841Z,92429.78
2022-12-29T00:06:41.081Z,92426.41
2022-12-29T00:09:07.808Z,92415.63
2022-12-29T00:11:34.401Z,92414.91
2022-12-29T00:14:25.676Z,92414.19
2022-12-29T00:16:52.793Z,92419.00
2022-12-29T00:19:38.126Z,92422.88
2022-12-29T00:22:23.473Z,92417.97
2022-12-29T00:24:56.145Z,92415.53
2022-12-29T00:27:41.257Z,92418.09
2022-12-29T00:30:33.814Z,92421.97
2022-12-29T00:33:18.949Z,92421.63
2022-12-29T00:35:47.316Z,92423.25
2022-12-29T00:38:32.609Z,92416.91
2022-12-29T00:41:17.763Z,92427.72
2022-12-29T00:44:03.111Z,92429.69
2022-12-29T00:46:29.889Z,92427.94
2022-12-29T00:49:15.374Z,92426.47
2022-12-29T00:51:42.067Z,92428.66
2022-12-29T00:54:08.855Z,92417.97
2022-12-29T00:56:35.519Z,92420.72
2022-12-29T00:59:03.208Z,92422.75
2022-12-29T01:01:30.288Z,92419.53
2022-12-29T01:04:02.034Z,92419.00
2022-12-29T01:06:30.542Z,92432.53
2022-12-29T01:09:15.985Z,92419.00
2022-12-29T01:11:42.890Z,92419.31
2022-12-29T01:14:09.553Z,92415.03
2022-12-29T01:16:37.462Z,92408.13
2022-12-29T01:19:04.521Z,92410.63
2022-12-29T01:21:31.436Z,92408.50
2022-12-29T01:23:58.145Z,92406.66
2022-12-29T01:26:24.897Z,92407.97
2022-12-29T01:28:51.667Z,92405.44
2022-12-29T01:31:18.377Z,92396.28
2022-12-29T01:33:45.144Z,92394.84
2022-12-29T01:36:14.614Z,92391.25
2022-12-29T01:38:41.426Z,92391.66
2022-12-29T01:41:08.834Z,92391.00
2022-12-29T01:43:44.433Z,92390.75
2022-12-29T01:46:25.359Z,92389.91
2022-12-29T01:49:13.731Z,92388.19
2022-12-29T01:51:59.148Z,92384.81
2022-12-29T01:54:37.379Z,92382.25
2022-12-29T01:57:06.070Z,92378.50
2022-12-29T01:59:35.801Z,92378.09
2022-12-29T02:02:02.483Z,92377.69
2022-12-29T02:04:30.940Z,92373.81
2022-12-29T02:06:59.359Z,92371.25
2022-12-29T02:09:25.981Z,92372.59
2022-12-29T02:11:53.027Z,92365.84
2022-12-29T02:14:19.677Z,92367.13
2022-12-29T02:16:46.339Z,92369.63
2022-12-29T02:19:47.992Z,92367.31
2022-12-29T02:22:39.644Z,92366.41
2022-12-29T02:25:33.920Z,92361.38
2022-12-29T02:28:25.300Z,92364.91
2022-12-29T02:31:33.409Z,92370.19
2022-12-29T02:34:06.954Z,92373.31
2022-12-29T02:36:56.306Z,92370.03
2022-12-29T02:39:30.733Z,92369.56
2022-12-29T02:42:38.851Z,92366.03
2022-12-29T02:45:33.841Z,92357.22
2022-12-29T02:48:00.925Z,92356.13
2022-12-29T02:50:41.999Z,92360.75
2022-12-29T02:53:16.658Z,92360.44
2022-12-29T02:55:50.611Z,92362.03
2022-12-29T02:58:19.702Z,92374.75
2022-12-29T03:01:23.820Z,92372.06
2022-12-29T03:03:50.419Z,92363.34
2022-12-29T03:06:35.625Z,92359.28
2022-12-29T03:09:36.343Z,92359.94
2022-12-29T03:12:21.079Z,92357.97
2022-12-29T03:15:22.116Z,92357.41
2022-12-29T03:18:39.784Z,92364.13
2022-12-29T03:21:57.750Z,92362.22
2022-12-29T03:24:30.639Z,92357.84
2022-12-29T03:26:59.495Z,92353.78
2022-12-29T03:29:26.621Z,92360.47
2022-12-29T03:31:54.121Z,92358.25
2022-12-29T03:34:21.626Z,92361.41
2022-12-29T03:37:12.442Z,92368.34
2022-12-29T03:39:39.150Z,92360.63
2022-12-29T03:42:16.173Z,92358.16
2022-12-29T03:44:45.776Z,92352.72
2022-12-29T03:47:13.181Z,92354.56
2022-12-29T03:49:39.821Z,92355.63
2022-12-29T03:52:06.505Z,92355.13
2022-12-29T03:54:34.094Z,92355.91
2022-12-29T03:57:00.879Z,92350.75
2022-12-29T03:59:27.484Z,92348.69
2022-12-29T04:01:54.216Z,92351.63
2022-12-29T04:04:20.999Z,92348.63
2022-12-29T04:06:47.760Z,92345.28
2022-12-29T04:09:14.461Z,92346.47
2022-12-29T04:11:41.061Z,92346.66
2022-12-29T04:14:07.711Z,92344.63
2022-12-29T04:16:36.698Z,92344.13
2022-12-29T04:19:03.643Z,92353.22
2022-12-29T04:21:30.263Z,92352.94
2022-12-29T04:23:56.992Z,92359.19
2022-12-29T04:26:23.717Z,92353.03
2022-12-29T04:28:50.467Z,92353.16
2022-12-29T04:31:17.257Z,92353.06
2022-12-29T04:33:45.236Z,92357.19
2022-12-29T04:36:12.026Z,92354.13
2022-12-29T04:38:38.679Z,92358.75
2022-12-29T04:41:05.442Z,92358.97
2022-12-29T04:43:32.061Z,92362.13
2022-12-29T04:45:58.834Z,92367.97
2022-12-29T04:48:25.578Z,92362.41
2022-12-29T04:50:52.313Z,92364.31
2022-12-29T04:53:19.068Z,92369.63
2022-12-29T04:55:45.762Z,92365.78
2022-12-29T04:58:16.260Z,92380.00
2022-12-29T05:00:45.801Z,92384.63
2022-12-29T05:03:12.640Z,92379.47
2022-12-29T05:05:39.368Z,92381.81
2022-12-29T05:08:06.139Z,92385.75
2022-12-29T05:10:32.829Z,92386.78
2022-12-29T05:12:59.719Z,92391.94
2022-12-29T05:15:26.304Z,92383.50
2022-12-29T05:17:53.014Z,92386.84
2022-12-29T05:20:19.719Z,92383.94
2022-12-29T05:22:46.365Z,92382.16
2022-12-29T05:25:12.964Z,92378.78
2022-12-29T05:27:39.537Z,92383.16
2022-12-29T05:30:06.819Z,92383.06
2022-12-29T05:32:34.406Z,92387.09
2022-12-29T05:35:01.061Z,92381.94
2022-12-29T05:37:27.656Z,92376.06
2022-12-29T05:39:54.386Z,92382.06
2022-12-29T05:42:21.054Z,92383.50
2022-12-29T05:44:51.001Z,92383.75
2022-12-29T05:47:17.674Z,92390.16
2022-12-29T05:49:44.287Z,92389.34
2022-12-29T05:52:23.078Z,92387.31
2022-12-29T05:54:49.766Z,92388.00
2022-12-29T05:57:16.435Z,92388.91
2022-12-29T05:59:42.981Z,92392.38
2022-12-29T06:02:10.622Z,92393.63
2022-12-29T06:04:37.309Z,92398.59
2022-12-29T06:07:03.935Z,92390.50
2022-12-29T06:09:30.528Z,92394.41
2022-12-29T06:11:57.219Z,92408.38
2022-12-29T06:14:23.859Z,92405.09
2022-12-29T06:16:50.504Z,92413.53
2022-12-29T06:19:17.411Z,92418.38
2022-12-29T06:21:44.013Z,92410.50
2022-12-29T06:24:12.079Z,92409.28
2022-12-29T06:26:38.872Z,92408.69
2022-12-29T06:29:05.869Z,92419.03
2022-12-29T06:31:32.526Z,92419.59
2022-12-29T06:34:03.535Z,92412.44
2022-12-29T06:36:33.183Z,92406.78
2022-12-29T06:38:59.859Z,92415.75
2022-12-29T06:41:32.018Z,92417.44
2022-12-29T06:43:59.308Z,92411.81
2022-12-29T06:46:26.097Z,92418.38
2022-12-29T06:48:52.838Z,92415.13
2022-12-29T06:51:19.431Z,92421.53
2022-12-29T06:53:46.180Z,92415.59
2022-12-29T06:56:12.846Z,92426.25
2022-12-29T06:58:39.505Z,92418.81
2022-12-29T07:01:06.307Z,92428.84
2022-12-29T07:03:32.989Z,92418.63
2022-12-29T07:05:59.742Z,92428.06
2022-12-29T07:08:26.386Z,92424.22
2022-12-29T07:10:53.121Z,92422.91
2022-12-29T07:13:19.788Z,92420.75
2022-12-29T07:15:46.434Z,92422.56
2022-12-29T07:18:13.101Z,92418.16
2022-12-29T07:20:39.705Z,92415.00
2022-12-29T07:23:06.663Z,92422.22
2022-12-29T07:25:33.832Z,92425.81
2022-12-29T07:28:00.480Z,92430.66
2022-12-29T07:30:27.132Z,92419.50
2022-12-29T07:32:53.895Z,92422.88
2022-12-29T07:35:20.820Z,92426.59
2022-12-29T07:37:47.543Z,92427.81
2022-12-29T07:40:14.296Z,92429.53
2022-12-29T07:42:40.923Z,92430.19
2022-12-29T07:45:08.201Z,92423.78
2022-12-29T07:47:34.884Z,92434.69
2022-12-29T07:50:01.587Z,92427.47
2022-12-29T07:52:28.353Z,92426.50
2022-12-29T07:54:55.072Z,92425.13
2022-12-29T07:57:26.450Z,92421.28
2022-12-29T07:59:56.349Z,92412.72
2022-12-29T08:02:23.210Z,92414.28
2022-12-29T08:04:50.568Z,92417.22
2022-12-29T08:07:17.289Z,92428.13
2022-12-29T08:09:43.873Z,92424.56
2022-12-29T08:12:11.554Z,92421.19
2022-12-29T08:14:38.272Z,92417.00
2022-12-29T08:17:04.871Z,92413.88
2022-12-29T08:19:31.541Z,92421.16
2022-12-29T08:21:58.235Z,92424.13
2022-12-29T08:24:24.909Z,92416.84
2022-12-29T08:26:51.566Z,92412.53
2022-12-29T08:29:18.280Z,92408.16
2022-12-29T08:31:44.900Z,92415.63
2022-12-29T08:34:11.873Z,92417.50
2022-12-29T08:36:38.643Z,92414.09
2022-12-29T08:39:05.416Z,92403.50
2022-12-29T08:41:32.011Z,92400.16
2022-12-29T08:43:58.831Z,92398.56
2022-12-29T08:46:25.678Z,92393.19
2022-12-29T08:48:52.365Z,92389.78
2022-12-29T08:51:23.012Z,92387.16
2022-12-29T08:53:51.775Z,92382.97
2022-12-29T08:56:18.528Z,92380.09
2022-12-29T08:58:45.230Z,92375.00
2022-12-29T09:01:12.306Z,92370.59
2022-12-29T09:04:13.035Z,92370.31
2022-12-29T09:06:25.613Z,92367.34
2022-12-29T09:08:54.856Z,92367.38
2022-12-29T09:11:23.359Z,92361.22
2022-12-29T09:13:50.253Z,92364.06
2022-12-29T09:16:17.246Z,92356.00
2022-12-29T09:18:44.254Z,92367.63
2022-12-29T09:21:11.156Z,92357.75
2022-12-29T09:23:37.742Z,92354.34
2022-12-29T09:26:04.580Z,92357.25
2022-12-29T09:28:31.324Z,92353.06
2022-12-29T09:30:58.412Z,92352.28
2022-12-29T09:33:25.230Z,92346.25
2022-12-29T09:35:54.536Z,92344.63
2022-12-29T09:38:21.380Z,92334.69
2022-12-29T09:41:14.243Z,92330.19
2022-12-29T09:44:17.460Z,92336.69
2022-12-29T09:46:45.972Z,92318.81
2022-12-29T09:49:34.519Z,92327.03
2022-12-29T09:52:06.986Z,92324.47
2022-12-29T09:55:02.386Z,92329.75
2022-12-29T09:57:38.632Z,92322.94
2022-12-29T10:00:14.284Z,92325.03
2022-12-29T10:02:44.878Z,92311.28
2022-12-29T10:05:24.263Z,92308.47
2022-12-29T10:08:29.223Z,92309.25
2022-12-29T10:11:18.892Z,92300.28
2022-12-29T10:13:51.441Z,92304.66
2022-12-29T10:16:50.773Z,92305.16
2022-12-29T10:19:33.674Z,92302.13
2022-12-29T10:22:00.451Z,92297.88
2022-12-29T10:24:27.195Z,92299.75
2022-12-29T10:26:54.074Z,92305.16
2022-12-29T10:29:22.223Z,92302.66
2022-12-29T10:32:11.331Z,92299.47
2022-12-29T10:34:46.583Z,92293.31
2022-12-29T10:37:33.554Z,92291.16
2022-12-29T10:40:00.568Z,92295.50
2022-12-29T10:42:29.055Z,92292.34
2022-12-29T10:44:56.469Z,92293.78
2022-12-29T10:47:25.611Z,92287.41
2022-12-29T10:49:52.354Z,92289.59
2022-12-29T10:52:20.293Z,92287.56
2022-12-29T10:54:54.922Z,92281.28
2022-12-29T10:57:29.915Z,92287.56
2022-12-29T10:59:56.580Z,92290.50
2022-12-29T11:02:44.508Z,92284.78
2022-12-29T11:05:32.409Z,92288.16
2022-12-29T11:08:00.932Z,92278.06
2022-12-29T11:10:37.970Z,92283.81
2022-12-29T11:13:12.365Z,92285.28
2022-12-29T11:15:48.986Z,92282.31
2022-12-29T11:18:33.143Z,92273.56
2022-12-29T11:21:01.510Z,92276.38
2022-12-29T11:23:35.393Z,92281.97
2022-12-29T11:26:11.171Z,92281.25
2022-12-29T11:28:38.993Z,92270.84
2022-12-29T11:31:06.352Z,92273.97
2022-12-29T11:33:33.725Z,92268.88
2022-12-29T11:36:03.699Z,92270.31
2022-12-29T11:38:36.187Z,92263.16
2022-12-29T11:41:03.548Z,92261.75
2022-12-29T11:43:35.514Z,92264.72
2022-12-29T11:46:04.589Z,92262.13
2022-12-29T11:48:34.725Z,92255.50
2022-12-29T11:51:01.483Z,92260.69
2022-12-29T11:53:41.033Z,92251.59
2022-12-29T11:56:11.670Z,92251.16
2022-12-29T11:58:38.984Z,92248.22
2022-12-29T12:01:18.314Z,92252.28
2022-12-29T12:03:49.155Z,92243.97
2022-12-29T12:06:17.841Z,92243.28
2022-12-29T12:08:56.956Z,92243.91
2022-12-29T12:11:37.348Z,92231.59
2022-12-29T12:14:15.399Z,92239.81
2022-12-29T12:16:44.698Z,92230.78
2022-12-29T12:19:17.299Z,92226.38
2022-12-29T12:21:46.327Z,92238.09
2022-12-29T12:24:19.457Z,92234.69
2022-12-29T12:27:02.400Z,92235.97
2022-12-29T12:29:47.515Z,92230.16
2022-12-29T12:32:17.821Z,92227.75
2022-12-29T12:34:45.318Z,92228.00
2022-12-29T12:37:42.958Z,92229.44
2022-12-29T12:40:24.764Z,92232.44
2022-12-29T12:42:51.360Z,92228.78
2022-12-29T12:45:36.376Z,92227.84
2022-12-29T12:48:26.335Z,92236.50
2022-12-29T12:51:09.932Z,92233.28
2022-12-29T12:53:46.517Z,92226.91
2022-12-29T12:56:20.028Z,92227.50
2022-12-29T12:59:09.456Z,92234.25
2022-12-29T13:01:47.931Z,92226.91
2022-12-29T13:04:42.519Z,92230.91
2022-12-29T13:07:22.503Z,92241.56
2022-12-29T13:10:20.540Z,92239.03
2022-12-29T13:13:05.747Z,92232.41
2022-12-29T13:15:53.957Z,92235.19
2022-12-29T13:18:56.009Z,92224.88
2022-12-29T13:21:28.587Z,92233.38
2022-12-29T13:24:03.623Z,92241.88
2022-12-29T13:27:00.457Z,92248.13
2022-12-29T13:30:04.139Z,92245.00
2022-12-29T13:32:36.682Z,92245.91
2022-12-29T13:35:41.239Z,92248.84
2022-12-29T13:38:19.797Z,92248.81
2022-12-29T13:40:48.043Z,92255.81
2022-12-29T13:43:15.044Z,92248.53
2022-12-29T13:45:41.690Z,92246.91
2022-12-29T13:48:16.315Z,92249.72
2022-12-29T13:50:43.103Z,92247.59
2022-12-29T13:53:21.622Z,92251.84
2022-12-29T13:55:48.218Z,92243.25
2022-12-29T13:58:24.192Z,92247.13
2022-12-29T14:01:03.784Z,92255.25
2022-12-29T14:03:45.983Z,92253.53
2022-12-29T14:06:28.598Z,92251.72
2022-12-29T14:09:03.180Z,92253.38
2022-12-29T14:11:32.405Z,92251.03
2022-12-29T14:13:59.099Z,92254.91
2022-12-29T14:16:27.006Z,92254.19
2022-12-29T14:18:55.282Z,92265.47
2022-12-29T14:21:23.726Z,92262.84
2022-12-29T14:23:51.430Z,92263.97
2022-12-29T14:26:31.264Z,92264.22
2022-12-29T14:29:04.563Z,92271.22
2022-12-29T14:31:31.575Z,92277.84
2022-12-29T14:34:18.535Z,92279.66
2022-12-29T14:36:54.680Z,92269.69
2022-12-29T14:39:42.271Z,92279.06
2022-12-29T14:42:11.863Z,92278.41
2022-12-29T14:45:08.563Z,92278.59
2022-12-29T14:47:39.510Z,92275.88
2022-12-29T14:50:07.023Z,92285.09
2022-12-29T14:52:33.771Z,92285.00
2022-12-29T14:55:01.498Z,92283.44
2022-12-29T14:57:31.077Z,92290.53
2022-12-29T15:00:18.707Z,92289.75
2022-12-29T15:02:48.825Z,92288.41
2022-12-29T15:05:32.007Z,92288.09
2022-12-29T15:07:58.794Z,92291.75
2022-12-29T15:10:26.636Z,92290.72
2022-12-29T15:12:54.707Z,92294.97
2022-12-29T15:15:26.452Z,92289.78
2022-12-29T15:17:53.221Z,92298.19
2022-12-29T15:20:25.871Z,92297.16
2022-12-29T15:23:02.066Z,92287.22
2022-12-29T15:25:28.768Z,92292.47
2022-12-29T15:28:04.894Z,92295.09
2022-12-29T15:30:31.755Z,92294.31
2022-12-29T15:32:58.435Z,92294.59
2022-12-29T15:35:35.999Z,92293.53
2022-12-29T15:38:23.544Z,92304.72
2022-12-29T15:41:00.028Z,92300.75
2022-12-29T15:43:55.910Z,92301.16
2022-12-29T15:46:22.659Z,92305.31
2022-12-29T15:48:49.404Z,92309.59
2022-12-29T15:51:42.369Z,92300.38
2022-12-29T15:54:19.120Z,92309.38
2022-12-29T15:56:45.822Z,92304.91
2022-12-29T15:59:27.672Z,92308.34
2022-12-29T16:01:55.666Z,92305.66
2022-12-29T16:04:22.481Z,92306.66
2022-12-29T16:07:06.233Z,92309.59
2022-12-29T16:09:37.529Z,92311.91
2022-12-29T16:12:09.007Z,92310.16
2022-12-29T16:14:46.008Z,92315.59
2022-12-29T16:17:20.385Z,92316.84
2022-12-29T16:19:55.315Z,92320.56
2022-12-29T16:22:25.737Z,92319.00
2022-12-29T16:24:52.384Z,92322.19
2022-12-29T16:27:23.367Z,92318.94
2022-12-29T16:29:50.884Z,92320.78
2022-12-29T16:32:30.395Z,92329.34
2022-12-29T16:35:11.140Z,92327.75
2022-12-29T16:37:38.791Z,92329.28
2022-12-29T16:40:31.470Z,92333.00
2022-12-29T16:43:02.395Z,92327.09
2022-12-29T16:45:47.224Z,92340.28
2022-12-29T16:48:13.871Z,92342.69
2022-12-29T16:50:42.327Z,92332.56
2022-12-29T16:53:26.783Z,92332.22
2022-12-29T16:55:53.863Z,92345.63
2022-12-29T16:58:28.659Z,92336.13
2022-12-29T17:00:56.642Z,92348.38
2022-12-29T17:03:24.238Z,92345.28
2022-12-29T17:05:57.109Z,92350.75
2022-12-29T17:08:24.304Z,92352.22
2022-12-29T17:11:14.066Z,92348.56
2022-12-29T17:13:40.808Z,92348.91
2022-12-29T17:16:08.486Z,92346.75
2022-12-29T17:18:35.600Z,92332.53
2022-12-29T17:21:02.327Z,92346.13
2022-12-29T17:23:28.930Z,92343.22
2022-12-29T17:25:55.658Z,92337.25
2022-12-29T17:28:25.959Z,92342.84
2022-12-29T17:30:58.663Z,92338.31
2022-12-29T17:33:25.296Z,92348.53
2022-12-29T17:35:55.507Z,92340.91
2022-12-29T17:38:29.689Z,92345.94
2022-12-29T17:40:56.381Z,92343.06
2022-12-29T17:43:23.039Z,92341.78
2022-12-29T17:45:53.173Z,92339.41
2022-12-29T17:48:19.991Z,92335.97
2022-12-29T17:50:47.771Z,92339.34
2022-12-29T17:53:15.742Z,92342.56
2022-12-29T17:55:42.529Z,92333.13
2022-12-29T17:58:20.139Z,92337.03
2022-12-29T18:01:00.849Z,92340.34
2022-12-29T18:03:35.436Z,92338.44
2022-12-29T18:06:02.665Z,92335.03
2022-12-29T18:08:29.702Z,92334.94
2022-12-29T18:10:56.415Z,92332.34
2022-12-29T18:13:25.899Z,92332.44
2022-12-29T18:15:54.966Z,92317.91
2022-12-29T18:18:23.201Z,92320.84
2022-12-29T18:20:50.892Z,92317.94
2022-12-29T18:23:28.826Z,92319.84
2022-12-29T18:26:23.914Z,92323.41
2022-12-29T18:28:54.145Z,92323.81
2022-12-29T18:31:27.841Z,92318.06
2022-12-29T18:33:55.042Z,92330.75
2022-12-29T18:36:21.837Z,92308.97
2022-12-29T18:38:48.614Z,92323.94
2022-12-29T18:41:23.306Z,92322.50
2022-12-29T18:43:49.924Z,92320.94
2022-12-29T18:46:22.389Z,92320.28
2022-12-29T18:48:49.948Z,92320.28
2022-12-29T18:51:17.838Z,92331.44
2022-12-29T18:53:44.960Z,92327.25
2022-12-29T18:56:11.911Z,92327.06
2022-12-29T18:58:38.694Z,92319.63
2022-12-29T19:01:05.956Z,92315.34
2022-12-29T19:03:32.848Z,92322.03
2022-12-29T19:06:00.431Z,92310.81
2022-12-29T19:08:27.261Z,92318.19
2022-12-29T19:10:54.061Z,92307.56
2022-12-29T19:13:23.709Z,92317.91
2022-12-29T19:15:50.501Z,92319.88
2022-12-29T19:21:08.144Z,92323.34
2022-12-29T19:23:34.739Z,92319.72
2022-12-29T19:26:01.436Z,92319.50
2022-12-29T19:28:28.275Z,92325.16
2022-12-29T19:30:57.422Z,92329.66
2022-12-29T19:33:24.296Z,92324.94
2022-12-29T19:35:51.218Z,92323.16
2022-12-29T19:38:17.993Z,92326.91
2022-12-29T19:40:46.155Z,92322.75
2022-12-29T19:43:13.017Z,92327.50
2022-12-29T19:45:40.765Z,92332.34
2022-12-29T19:48:08.060Z,92342.59
2022-12-29T19:50:35.425Z,92336.06
2022-12-29T19:53:05.384Z,92332.97
2022-12-29T19:55:32.441Z,92340.91
2022-12-29T19:57:59.199Z,92339.31
2022-12-29T20:00:25.836Z,92345.06
2022-12-29T20:02:52.779Z,92339.75
2022-12-29T20:05:19.830Z,92325.38
2022-12-29T20:07:46.443Z,92326.50
2022-12-29T20:10:13.173Z,92326.72
2022-12-29T20:12:39.812Z,92309.75
2022-12-29T20:15:07.866Z,92317.38
2022-12-29T20:18:10.703Z,92320.22
2022-12-29T20:20:21.309Z,92323.09
2022-12-29T20:22:48.027Z,92321.97
2022-12-29T20:28:01.292Z,92320.69
2022-12-29T20:30:27.915Z,92313.31
2022-12-29T20:32:54.565Z,92320.69
2022-12-29T20:35:21.303Z,92311.59
2022-12-29T20:37:47.999Z,92312.50
2022-12-29T20:40:14.752Z,92317.53
2022-12-29T20:42:41.520Z,92316.44
2022-12-29T20:45:08.945Z,92317.94
2022-12-29T20:47:35.562Z,92325.31
2022-12-29T20:50:02.327Z,92320.88
2022-12-29T20:52:28.975Z,92321.25
2022-12-29T20:54:55.635Z,92323.88
2022-12-29T20:57:22.288Z,92325.53
2022-12-29T20:59:49.019Z,92327.63
2022-12-29T21:02:22.316Z,92327.09
2022-12-29T21:07:35.710Z,92323.34
2022-12-29T21:10:02.383Z,92334.13
2022-12-29T21:12:29.034Z,92332.97
2022-12-29T21:14:55.705Z,92329.38
2022-12-29T21:17:22.298Z,92327.03
2022-12-29T21:19:48.975Z,92326.13
2022-12-29T21:22:15.690Z,92327.66
2022-12-29T21:24:42.464Z,92326.38
2022-12-29T21:27:09.146Z,92327.25
2022-12-29T21:29:35.782Z,92330.78
2022-12-29T21:32:06.241Z,92326.22
2022-12-29T21:34:34.824Z,92322.63
2022-12-29T21:37:01.566Z,92321.34
2022-12-29T21:39:28.186Z,92330.63
2022-12-29T21:42:00.197Z,92325.44
2022-12-29T21:44:46.061Z,92325.06
2022-12-29T21:47:12.884Z,92321.50
2022-12-29T21:49:39.537Z,92315.88
2022-12-29T21:52:06.247Z,92319.78
2022-12-29T21:55:02.009Z,92313.72
2022-12-29T21:57:47.295Z,92316.50
2022-12-29T22:00:33.131Z,92315.38
2022-12-29T22:03:23.081Z,92310.19
2022-12-29T22:06:09.472Z,92305.19
2022-12-29T22:08:54.799Z,92302.50
2022-12-29T22:11:40.073Z,92299.03
2022-12-29T22:14:06.928Z,92297.91
2022-12-29T22:16:33.636Z,92297.81
2022-12-29T22:19:00.268Z,92298.09
2022-12-29T22:21:26.896Z,92296.78
2022-12-29T22:23:53.592Z,92303.09
2022-12-29T22:26:20.321Z,92288.47
2022-12-29T22:28:48.073Z,92288.13
2022-12-29T22:31:28.910Z,92291.91
2022-12-29T22:34:01.068Z,92293.72
2022-12-29T22:36:28.039Z,92293.44
2022-12-29T22:38:55.278Z,92286.16
2022-12-29T22:41:22.285Z,92290.22
2022-12-29T22:43:48.979Z,92291.72
2022-12-29T22:46:15.754Z,92281.34
2022-12-29T22:48:42.435Z,92292.91
2022-12-29T22:51:09.516Z,92281.25
2022-12-29T22:53:36.173Z,92283.25
2022-12-29T22:56:09.857Z,92283.59
2022-12-29T22:58:40.003Z,92292.00
2022-12-29T23:01:06.744Z,92294.94
2022-12-29T23:03:33.423Z,92291.25
2022-12-29T23:06:00.996Z,92290.34
2022-12-29T23:08:28.519Z,92279.31
2022-12-29T23:10:55.161Z,92286.53
2022-12-29T23:13:21.792Z,92282.44
2022-12-29T23:15:48.515Z,92287.03
2022-12-29T23:18:16.189Z,92276.94
2022-12-29T23:20:43.390Z,92288.84
2022-12-29T23:23:10.420Z,92276.44
2022-12-29T23:25:37.883Z,92281.56
2022-12-29T23:28:05.484Z,92273.25
2022-12-29T23:30:32.216Z,92276.38
2022-12-29T23:32:58.924Z,92275.88
2022-12-29T23:35:25.640Z,92280.47
2022-12-29T23:37:52.323Z,92274.22
2022-12-29T23:40:19.036Z,92277.66
2022-12-29T23:42:45.684Z,92274.28
2022-12-29T23:45:13.677Z,92264.84
2022-12-29T23:47:40.260Z,92268.16
2022-12-29T23:50:08.697Z,92263.59
2022-12-29T23:52:35.534Z,92267.22
2022-12-29T23:55:02.479Z,92264.31
2022-12-29T23:57:29.100Z,92265.50
2022-12-29T23:59:55.705Z,92272.25
